Time,TemperatureF,DewpointF,PressureIn,WindDirection,WindDirectionDegrees,WindSpeedMPH,WindSpeedGustMPH,Humidity,HourlyPrecipIn,Conditions,Clouds,dailyrainin,SolarRadiationWatts/m^2,SoftwareType,DateUTC
2013-03-21 00:00:00,39.2,35.1,30.23,SSW,200,0.0,5.0,85,0.00,,---,0.00,0.00,VWS V14.01,2013-03-21 07:00:00,
2013-03-21 00:05:00,39.0,34.9,30.23,SSW,200,1.0,5.0,85,0.00,,---,0.00,0.00,VWS V14.01,2013-03-21 07:05:00,
2013-03-21 00:10:00,38.8,35.0,30.23,SSW,200,3.0,4.0,86,0.00,,---,0.00,0.00,VWS V14.01,2013-03-21 07:10:00,
2013-03-21 00:15:00,38.5,35.0,30.23,South,188,1.0,4.0,87,0.00,,---,0.00,0.00,VWS V14.01,2013-03-21 07:15:00,
2013-03-21 00:20:00,38.3,35.3,30.23,SSW,198,4.0,9.0,89,0.00,,---,0.00,0.00,VWS V14.01,2013-03-21 07:20:00,
2013-03-21 00:25:00,38.1,35.2,30.23,SSW,202,6.0,9.0,89,0.00,,---,0.00,0.00,VWS V14.01,2013-03-21 07:25:00,
2013-03-21 00:30:00,37.8,35.1,30.23,South,185,3.0,6.0,90,0.00,,---,0.00,0.00,VWS V14.01,2013-03-21 07:30:00,
2013-03-21 00:35:00,37.6,35.2,30.23,SSW,193,3.0,6.0,91,0.00,,---,0.00,0.00,VWS V14.01,2013-03-21 07:35:00,
2013-03-21 00:40:00,37.5,35.1,30.24,SSW,193,0.0,5.0,91,0.00,,---,0.00,0.00,VWS V14.01,2013-03-21 07:40:00,
2013-03-21 00:45:00,37.5,35.4,30.24,SSW,193,0.0,5.0,92,0.00,,---,0.00,0.00,VWS V14.01,2013-03-21 07:45:00,
2013-03-21 00:50:00,37.5,35.4,30.24,SSW,193,0.0,2.0,92,0.00,,---,0.00,0.00,VWS V14.01,2013-03-21 07:50:00,
2013-03-21 00:55:00,37.6,35.8,30.24,SSW,194,0.0,3.0,93,0.00,,---,0.00,0.00,VWS V14.01,2013-03-21 07:55:00,
2013-03-21 01:00:00,37.7,35.9,30.24,South,171,3.0,5.0,93,0.00,,---,0.00,0.00,VWS V14.01,2013-03-21 08:00:00,
2013-03-21 01:05:00,37.8,36.0,30.24,South,171,3.0,5.0,93,0.00,,---,0.00,0.00,VWS V14.01,2013-03-21 08:05:00,
2013-03-21 01:10:00,38.0,36.2,30.25,South,171,2.0,4.0,93,0.00,,---,0.00,0.00,VWS V14.01,2013-03-21 08:10:00,
2013-03-21 01:15:00,38.1,36.3,30.25,South,171,2.0,4.0,93,0.00,,---,0.00,0.00,VWS V14.01,2013-03-21 08:15:00,
2013-03-21 01:20:00,38.2,36.4,30.25,South,171,1.0,4.0,93,0.00,,---,0.00,0.00,VWS V14.01,2013-03-21 08:20:00,
2013-03-21 01:25:00,38.2,36.4,30.25,SSW,207,2.0,6.0,93,0.00,,---,0.00,0.00,VWS V14.01,2013-03-21 08:25:00,
2013-03-21 01:30:00,38.2,36.4,30.25,SSW,207,0.0,3.0,93,0.00,,---,0.00,0.00,VWS V14.01,2013-03-21 08:30:00,
2013-03-21 01:35:00,38.1,36.3,30.26,SSW,207,0.0,4.0,93,0.00,,---,0.00,0.00,VWS V14.01,2013-03-21 08:35:00,
2013-03-21 01:40:00,38.1,36.3,30.26,SSW,194,2.0,5.0,93,0.00,,---,0.00,0.00,VWS V14.01,2013-03-21 08:40:00,
2013-03-21 01:45:00,38.1,36.3,30.26,SSW,194,2.0,5.0,93,0.00,,---,0.00,0.00,VWS V14.01,2013-03-21 08:45:00,
2013-03-21 01:50:00,38.1,36.3,30.26,SSW,194,0.0,2.0,93,0.01,,---,0.01,0.00,VWS V14.01,2013-03-21 08:50:00,
2013-03-21 01:55:00,38.1,36.3,30.26,SSW,194,0.0,2.0,93,0.01,,---,0.01,0.00,VWS V14.01,2013-03-21 08:55:00,
2013-03-21 02:00:00,38.0,36.4,30.26,SSW,194,0.0,3.0,94,0.01,,---,0.01,0.00,VWS V14.01,2013-03-21 09:00:00,
2013-03-21 02:05:00,38.0,36.2,30.26,SSW,194,2.0,3.0,93,0.01,,---,0.01,0.00,VWS V14.01,2013-03-21 09:05:00,
2013-03-21 02:10:00,37.9,36.1,30.26,SSW,210,7.0,7.0,93,0.01,,---,0.01,0.00,VWS V14.01,2013-03-21 09:10:00,
2013-03-21 02:15:00,37.8,36.0,30.26,South,178,0.0,8.0,93,0.01,,---,0.01,0.00,VWS V14.01,2013-03-21 09:15:00,
2013-03-21 02:20:00,37.8,36.0,30.26,South,178,1.0,4.0,93,0.01,,---,0.01,0.00,VWS V14.01,2013-03-21 09:20:00,
2013-03-21 02:25:00,37.7,35.9,30.26,South,178,3.0,4.0,93,0.01,,---,0.01,0.00,VWS V14.01,2013-03-21 09:25:00,
2013-03-21 02:30:00,37.7,35.9,30.26,South,178,0.0,3.0,93,0.01,,---,0.01,0.00,VWS V14.01,2013-03-21 09:30:00,
2013-03-21 02:35:00,37.7,35.9,30.27,South,178,2.0,4.0,93,0.01,,---,0.01,0.00,VWS V14.01,2013-03-21 09:35:00,
2013-03-21 02:40:00,37.8,36.0,30.27,South,178,0.0,5.0,93,0.01,,---,0.01,0.00,VWS V14.01,2013-03-21 09:40:00,
2013-03-21 02:45:00,37.8,36.0,30.27,South,178,0.0,5.0,93,0.01,,---,0.01,0.00,VWS V14.01,2013-03-21 09:45:00,
2013-03-21 02:50:00,37.8,36.0,30.27,South,178,0.0,1.0,93,0.00,,---,0.01,0.00,VWS V14.01,2013-03-21 09:50:00,
2013-03-21 02:55:00,37.8,36.0,30.27,South,178,0.0,2.0,93,0.00,,---,0.01,0.00,VWS V14.01,2013-03-21 09:55:00,
2013-03-21 03:00:00,37.8,36.0,30.27,South,178,2.0,4.0,93,0.00,,---,0.01,0.00,VWS V14.01,2013-03-21 10:00:00,
2013-03-21 03:05:00,37.8,36.0,30.28,South,182,2.0,4.0,93,0.00,,---,0.01,0.00,VWS V14.01,2013-03-21 10:05:00,
2013-03-21 03:10:00,37.7,35.9,30.27,South,178,5.0,5.0,93,0.01,,---,0.02,0.00,VWS V14.01,2013-03-21 10:10:00,
2013-03-21 03:15:00,37.8,36.2,30.28,South,182,9.0,9.0,94,0.01,,---,0.02,0.00,VWS V14.01,2013-03-21 10:15:00,
2013-03-21 03:20:00,37.7,36.1,30.27,South,173,2.0,6.0,94,0.01,,---,0.02,0.00,VWS V14.01,2013-03-21 10:20:00,
2013-03-21 03:25:00,37.7,36.1,30.27,South,187,4.0,7.0,94,0.01,,---,0.02,0.00,VWS V14.01,2013-03-21 10:25:00,
2013-03-21 03:29:00,37.6,36.0,30.27,South,175,3.0,7.0,94,0.01,,---,0.02,0.00,VWS V14.01,2013-03-21 10:29:00,
2013-03-21 03:30:00,37.7,36.1,30.27,SSW,192,4.0,7.0,94,0.01,,---,0.02,0.00,VWS V14.01,2013-03-21 10:30:00,
2013-03-21 03:34:00,37.6,36.0,30.27,SSW,210,3.0,7.0,94,0.01,,---,0.02,0.00,VWS V14.01,2013-03-21 10:34:00,
2013-03-21 03:39:00,37.4,35.8,30.27,South,188,2.0,4.0,94,0.01,,---,0.02,0.00,VWS V14.01,2013-03-21 10:39:00,
2013-03-21 03:40:00,37.5,35.9,30.27,South,188,3.0,7.0,94,0.01,,---,0.02,0.00,VWS V14.01,2013-03-21 10:40:00,
2013-03-21 03:44:00,37.3,35.7,30.27,South,188,2.0,4.0,94,0.01,,---,0.02,0.00,VWS V14.01,2013-03-21 10:44:00,
2013-03-21 03:49:00,37.1,35.5,30.27,South,188,0.0,2.0,94,0.01,,---,0.02,0.00,VWS V14.01,2013-03-21 10:49:00,
2013-03-21 03:50:00,37.2,35.6,30.27,South,188,0.0,4.0,94,0.01,,---,0.02,0.00,VWS V14.01,2013-03-21 10:50:00,
2013-03-21 03:54:00,37.0,35.4,30.27,South,189,0.0,4.0,94,0.01,,---,0.02,0.00,VWS V14.01,2013-03-21 10:54:00,
2013-03-21 03:59:00,36.9,35.3,30.27,South,191,1.0,4.0,94,0.01,,---,0.02,0.00,VWS V14.01,2013-03-21 10:59:00,
2013-03-21 04:00:00,37.0,35.4,30.27,South,190,4.0,4.0,94,0.01,,---,0.02,0.00,VWS V14.01,2013-03-21 11:00:00,
2013-03-21 04:04:00,36.8,35.2,30.27,South,191,1.0,4.0,94,0.01,,---,0.02,0.00,VWS V14.01,2013-03-21 11:04:00,
2013-03-21 04:09:00,36.7,35.1,30.28,South,191,2.0,3.0,94,0.00,,---,0.02,0.00,VWS V14.01,2013-03-21 11:09:00,
2013-03-21 04:10:00,36.8,35.2,30.27,South,191,2.0,4.0,94,0.01,,---,0.02,0.00,VWS V14.01,2013-03-21 11:10:00,
2013-03-21 04:14:00,36.7,35.1,30.28,SSW,193,2.0,5.0,94,0.00,,---,0.02,0.00,VWS V14.01,2013-03-21 11:14:00,
2013-03-21 04:19:00,36.8,35.5,30.28,SSW,193,2.0,3.0,95,0.00,,---,0.02,0.00,VWS V14.01,2013-03-21 11:19:00,
2013-03-21 04:20:00,36.8,35.2,30.28,SSW,193,0.0,5.0,94,0.00,,---,0.02,0.00,VWS V14.01,2013-03-21 11:20:00,
2013-03-21 04:24:00,36.9,35.6,30.28,SSW,193,2.0,4.0,95,0.00,,---,0.02,0.00,VWS V14.01,2013-03-21 11:24:00,
2013-03-21 04:29:00,37.0,35.7,30.27,SSW,198,5.0,5.0,95,0.00,,---,0.02,0.00,VWS V14.01,2013-03-21 11:29:00,
2013-03-21 04:30:00,36.9,35.6,30.27,SSW,193,1.0,4.0,95,0.00,,---,0.02,0.00,VWS V14.01,2013-03-21 11:30:00,
2013-03-21 04:34:00,37.1,35.8,30.27,SSW,200,5.0,5.0,95,0.00,,---,0.02,0.00,VWS V14.01,2013-03-21 11:34:00,
2013-03-21 04:39:00,37.1,35.8,30.27,SSW,198,0.0,5.0,95,0.00,,---,0.02,0.00,VWS V14.01,2013-03-21 11:39:00,
2013-03-21 04:40:00,37.1,35.8,30.27,SSW,207,2.0,6.0,95,0.00,,---,0.02,0.00,VWS V14.01,2013-03-21 11:40:00,
2013-03-21 04:44:00,37.2,35.9,30.27,SSW,198,4.0,5.0,95,0.00,,---,0.02,0.00,VWS V14.01,2013-03-21 11:44:00,
2013-03-21 04:49:00,37.2,35.6,30.28,South,190,6.0,6.0,94,0.00,,---,0.02,0.00,VWS V14.01,2013-03-21 11:49:00,
2013-03-21 04:50:00,37.1,35.5,30.27,SSW,192,5.0,6.0,94,0.00,,---,0.02,0.00,VWS V14.01,2013-03-21 11:50:00,
2013-03-21 04:54:00,37.1,35.5,30.28,SW,232,2.0,7.0,94,0.00,,---,0.02,0.00,VWS V14.01,2013-03-21 11:54:00,
2013-03-21 04:59:00,37.1,35.8,30.28,South,175,3.0,7.0,95,0.00,,---,0.02,0.00,VWS V14.01,2013-03-21 11:59:00,
2013-03-21 05:00:00,37.1,35.8,30.28,South,186,4.0,9.0,95,0.00,,---,0.02,0.00,VWS V14.01,2013-03-21 12:00:00,
2013-03-21 05:04:00,37.1,35.8,30.28,SSW,192,2.0,7.0,95,0.00,,---,0.02,0.00,VWS V14.01,2013-03-21 12:04:00,
2013-03-21 05:09:00,37.0,35.7,30.28,SSW,202,2.0,6.0,95,0.00,,---,0.02,0.00,VWS V14.01,2013-03-21 12:09:00,
2013-03-21 05:10:00,37.1,35.8,30.27,SSW,194,2.0,7.0,95,0.00,,---,0.02,0.00,VWS V14.01,2013-03-21 12:10:00,
2013-03-21 05:14:00,37.0,35.7,30.28,SSW,205,4.0,6.0,95,0.00,,---,0.02,0.00,VWS V14.01,2013-03-21 12:14:00,
2013-03-21 05:19:00,36.9,35.6,30.27,South,190,3.0,9.0,95,0.00,,---,0.02,0.00,VWS V14.01,2013-03-21 12:19:00,
2013-03-21 05:20:00,36.9,35.6,30.27,SSW,205,6.0,9.0,95,0.00,,---,0.02,0.00,VWS V14.01,2013-03-21 12:20:00,
2013-03-21 05:24:00,36.8,35.5,30.27,SSW,213,6.0,9.0,95,0.00,,---,0.02,0.00,VWS V14.01,2013-03-21 12:24:00,
2013-03-21 05:29:00,36.7,35.1,30.28,South,179,3.0,6.0,94,0.00,,---,0.02,0.00,VWS V14.01,2013-03-21 12:29:00,
2013-03-21 05:30:00,36.8,36.8,30.27,SSW,203,5.0,9.0,100,0.00,,---,0.02,0.00,VWS V14.01,2013-03-21 12:30:00,
2013-03-21 05:34:00,36.7,35.1,30.27,SSW,200,2.0,9.0,94,0.00,,---,0.02,0.00,VWS V14.01,2013-03-21 12:34:00,
2013-03-21 05:39:00,36.6,35.0,30.27,SSW,193,3.0,6.0,94,0.00,,---,0.02,0.00,VWS V14.01,2013-03-21 12:39:00,
2013-03-21 05:40:00,36.7,35.1,30.28,SW,215,1.0,9.0,94,0.00,,---,0.02,0.00,VWS V14.01,2013-03-21 12:40:00,
2013-03-21 05:44:00,36.4,34.8,30.28,SSW,193,1.0,6.0,94,0.00,,---,0.02,0.00,VWS V14.01,2013-03-21 12:44:00,
2013-03-21 05:49:00,36.3,34.7,30.27,South,191,4.0,4.0,94,0.00,,---,0.02,0.00,VWS V14.01,2013-03-21 12:49:00,
2013-03-21 05:50:00,36.4,34.8,30.28,South,191,3.0,6.0,94,0.00,,---,0.02,0.00,VWS V14.01,2013-03-21 12:50:00,
2013-03-21 05:54:00,36.2,34.6,30.27,South,191,0.0,6.0,94,0.00,,---,0.02,0.00,VWS V14.01,2013-03-21 12:54:00,
2013-03-21 05:59:00,36.1,34.5,30.27,South,181,0.0,5.0,94,0.00,,---,0.02,0.00,VWS V14.01,2013-03-21 12:59:00,
2013-03-21 06:00:00,36.2,34.6,30.27,South,185,3.0,6.0,94,0.00,,---,0.02,0.00,VWS V14.01,2013-03-21 13:00:00,
2013-03-21 06:04:00,36.0,34.4,30.27,South,191,3.0,5.0,94,0.00,,---,0.02,0.00,VWS V14.01,2013-03-21 13:04:00,
2013-03-21 06:09:00,35.9,34.3,30.27,South,191,3.0,4.0,94,0.00,,---,0.02,0.00,VWS V14.01,2013-03-21 13:09:00,
2013-03-21 06:10:00,36.0,34.4,30.28,South,191,2.0,5.0,94,0.00,,---,0.02,0.00,VWS V14.01,2013-03-21 13:10:00,
2013-03-21 06:14:00,35.6,34.0,30.27,South,191,1.0,4.0,94,0.00,,---,0.02,0.00,VWS V14.01,2013-03-21 13:14:00,
2013-03-21 06:19:00,35.5,34.0,30.27,South,191,0.0,4.0,94,0.00,,---,0.02,0.00,VWS V14.01,2013-03-21 13:19:00,
2013-03-21 06:20:00,35.6,34.3,30.27,South,191,2.0,4.0,95,0.00,,---,0.02,0.00,VWS V14.01,2013-03-21 13:20:00,
2013-03-21 06:24:00,35.4,34.1,30.27,SSW,192,0.0,4.0,95,0.00,,---,0.02,0.00,VWS V14.01,2013-03-21 13:24:00,
2013-03-21 06:29:00,35.4,34.1,30.28,SSW,209,3.0,4.0,95,0.00,,---,0.02,0.00,VWS V14.01,2013-03-21 13:29:00,
2013-03-21 06:30:00,35.4,34.1,30.28,SSW,192,4.0,4.0,95,0.00,,---,0.02,0.00,VWS V14.01,2013-03-21 13:30:00,
2013-03-21 06:34:00,35.4,34.1,30.28,SSW,196,0.0,5.0,95,0.00,,---,0.02,0.00,VWS V14.01,2013-03-21 13:34:00,
2013-03-21 06:39:00,35.5,34.2,30.28,WSW,241,0.0,5.0,95,0.01,,---,0.03,0.00,VWS V14.01,2013-03-21 13:39:00,
2013-03-21 06:40:00,35.4,34.1,30.28,SSW,196,0.0,5.0,95,0.00,,---,0.02,0.00,VWS V14.01,2013-03-21 13:40:00,
2013-03-21 06:44:00,35.7,34.4,30.28,West,267,2.0,6.0,95,0.01,,---,0.03,0.00,VWS V14.01,2013-03-21 13:44:00,
2013-03-21 06:49:00,35.8,34.5,30.28,SSW,202,0.0,3.0,95,0.01,,---,0.03,0.00,VWS V14.01,2013-03-21 13:49:00,
2013-03-21 06:50:00,35.7,34.4,30.28,SSW,192,3.0,6.0,95,0.01,,---,0.03,0.00,VWS V14.01,2013-03-21 13:50:00,
2013-03-21 06:54:00,35.8,34.5,30.28,SW,229,3.0,3.0,95,0.01,,---,0.03,0.00,VWS V14.01,2013-03-21 13:54:00,
2013-03-21 06:59:00,35.9,34.6,30.29,SW,225,0.0,3.0,95,0.01,,---,0.03,0.00,VWS V14.01,2013-03-21 13:59:00,
2013-03-21 07:00:00,35.8,34.5,30.29,SW,225,2.0,6.0,95,0.01,,---,0.03,0.00,VWS V14.01,2013-03-21 14:00:00,
2013-03-21 07:04:00,35.9,34.3,30.28,SW,233,1.0,6.0,94,0.01,,---,0.03,0.00,VWS V14.01,2013-03-21 14:04:00,
2013-03-21 07:09:00,35.9,34.3,30.29,SW,216,4.0,4.0,94,0.01,,---,0.03,0.00,VWS V14.01,2013-03-21 14:09:00,
2013-03-21 07:10:00,35.9,34.3,30.28,SW,220,0.0,6.0,94,0.01,,---,0.03,0.00,VWS V14.01,2013-03-21 14:10:00,
2013-03-21 07:14:00,35.9,34.3,30.28,SSW,203,2.0,6.0,94,0.01,,---,0.03,0.00,VWS V14.01,2013-03-21 14:14:00,
2013-03-21 07:19:00,36.0,34.4,30.28,South,191,6.0,6.0,94,0.01,,---,0.03,5.00,VWS V14.01,2013-03-21 14:19:00,
2013-03-21 07:20:00,35.9,34.3,30.28,South,170,3.0,7.0,94,0.01,,---,0.03,5.00,VWS V14.01,2013-03-21 14:20:00,
2013-03-21 07:24:00,36.1,34.5,30.28,SSW,203,3.0,7.0,94,0.01,,---,0.03,9.00,VWS V14.01,2013-03-21 14:24:00,
2013-03-21 07:29:00,36.2,34.6,30.28,South,175,3.0,8.0,94,0.01,,---,0.03,11.00,VWS V14.01,2013-03-21 14:29:00,
2013-03-21 07:30:00,36.1,34.5,30.28,SSW,209,5.0,7.0,94,0.01,,---,0.03,9.00,VWS V14.01,2013-03-21 14:30:00,
2013-03-21 07:34:00,36.3,34.7,30.28,SW,215,4.0,8.0,94,0.01,,---,0.03,14.00,VWS V14.01,2013-03-21 14:34:00,
2013-03-21 07:39:00,36.3,34.7,30.28,SSW,198,4.0,8.0,94,0.01,,---,0.03,18.00,VWS V14.01,2013-03-21 14:39:00,
2013-03-21 07:40:00,36.3,34.7,30.28,SSW,193,5.0,8.0,94,0.01,,---,0.03,16.00,VWS V14.01,2013-03-21 14:40:00,
2013-03-21 07:44:00,36.3,34.7,30.28,SSW,192,5.0,8.0,94,0.01,,---,0.03,23.00,VWS V14.01,2013-03-21 14:44:00,
2013-03-21 07:49:00,36.2,34.6,30.28,SSW,202,4.0,6.0,94,0.00,,---,0.03,25.00,VWS V14.01,2013-03-21 14:49:00,
2013-03-21 07:50:00,36.2,34.6,30.28,South,184,6.0,8.0,94,0.01,,---,0.03,25.00,VWS V14.01,2013-03-21 14:50:00,
2013-03-21 07:54:00,36.2,34.6,30.28,SSW,205,2.0,9.0,94,0.00,,---,0.03,28.00,VWS V14.01,2013-03-21 14:54:00,
2013-03-21 07:59:00,36.1,34.5,30.29,SSW,209,1.0,4.0,94,0.00,,---,0.03,42.00,VWS V14.01,2013-03-21 14:59:00,
2013-03-21 08:00:00,36.1,34.5,30.29,South,187,1.0,9.0,94,0.00,,---,0.03,33.00,VWS V14.01,2013-03-21 15:00:00,
2013-03-21 08:04:00,36.1,34.5,30.28,SSW,209,3.0,5.0,94,0.00,,---,0.03,91.00,VWS V14.01,2013-03-21 15:04:00,
2013-03-21 08:09:00,36.3,35.0,30.28,South,188,0.0,2.0,95,0.00,,---,0.03,102.00,VWS V14.01,2013-03-21 15:09:00,
2013-03-21 08:10:00,36.2,34.6,30.28,South,188,1.0,6.0,94,0.00,,---,0.03,67.00,VWS V14.01,2013-03-21 15:10:00,
2013-03-21 08:14:00,36.6,35.3,30.29,South,186,3.0,5.0,95,0.00,,---,0.03,63.00,VWS V14.01,2013-03-21 15:14:00,
2013-03-21 08:19:00,36.9,35.6,30.29,South,184,4.0,5.0,95,0.00,,---,0.03,56.00,VWS V14.01,2013-03-21 15:19:00,
2013-03-21 08:20:00,36.8,35.5,30.29,SW,229,0.0,6.0,95,0.00,,---,0.03,60.00,VWS V14.01,2013-03-21 15:20:00,
2013-03-21 08:24:00,37.1,35.5,30.29,South,186,4.0,7.0,94,0.00,,---,0.03,63.00,VWS V14.01,2013-03-21 15:24:00,
2013-03-21 08:29:00,37.3,35.7,30.29,SSW,209,4.0,7.0,94,0.00,,---,0.03,62.00,VWS V14.01,2013-03-21 15:29:00,
2013-03-21 08:30:00,37.2,35.6,30.29,SSW,206,4.0,9.0,94,0.00,,---,0.03,60.00,VWS V14.01,2013-03-21 15:30:00,
2013-03-21 08:34:00,37.4,35.8,30.29,SSW,209,5.0,8.0,94,0.00,,---,0.03,51.00,VWS V14.01,2013-03-21 15:34:00,
2013-03-21 08:39:00,37.6,36.0,30.29,SSE,167,0.0,4.0,94,0.00,,---,0.03,62.00,VWS V14.01,2013-03-21 15:39:00,
2013-03-21 08:40:00,37.5,35.9,30.29,WSW,243,3.0,8.0,94,0.00,,---,0.03,60.00,VWS V14.01,2013-03-21 15:40:00,
2013-03-21 08:44:00,37.6,36.0,30.30,SSW,192,3.0,5.0,94,0.00,,---,0.03,49.00,VWS V14.01,2013-03-21 15:44:00,
2013-03-21 08:49:00,37.7,36.1,30.30,SSW,212,2.0,5.0,94,0.00,,---,0.03,58.00,VWS V14.01,2013-03-21 15:49:00,
2013-03-21 08:50:00,37.6,36.0,30.30,SSW,207,4.0,6.0,94,0.00,,---,0.03,54.00,VWS V14.01,2013-03-21 15:50:00,
2013-03-21 08:54:00,37.7,36.1,30.30,SW,218,0.0,7.0,94,0.00,,---,0.03,62.00,VWS V14.01,2013-03-21 15:54:00,
2013-03-21 08:59:00,37.8,36.2,30.31,SW,223,2.0,4.0,94,0.00,,---,0.03,53.00,VWS V14.01,2013-03-21 15:59:00,
2013-03-21 09:00:00,37.8,36.2,30.31,SW,222,4.0,7.0,94,0.00,,---,0.03,54.00,VWS V14.01,2013-03-21 16:00:00,
2013-03-21 09:04:00,38.0,36.4,30.31,SSW,207,1.0,7.0,94,0.00,,---,0.03,74.00,VWS V14.01,2013-03-21 16:04:00,
2013-03-21 09:09:00,38.0,36.4,30.30,SSW,198,3.0,7.0,94,0.00,,---,0.03,86.00,VWS V14.01,2013-03-21 16:09:00,
2013-03-21 09:10:00,38.0,36.4,30.31,South,188,4.0,7.0,94,0.00,,---,0.03,81.00,VWS V14.01,2013-03-21 16:10:00,
2013-03-21 09:14:00,38.2,36.6,30.30,SSW,196,3.0,11.0,94,0.00,,---,0.03,121.00,VWS V14.01,2013-03-21 16:14:00,
2013-03-21 09:19:00,38.3,36.7,30.30,South,182,7.0,11.0,94,0.00,,---,0.03,146.00,VWS V14.01,2013-03-21 16:19:00,
2013-03-21 09:20:00,38.3,36.7,30.30,SSW,208,5.0,11.0,94,0.00,,---,0.03,146.00,VWS V14.01,2013-03-21 16:20:00,
2013-03-21 09:24:00,38.4,36.8,30.30,SSW,205,3.0,11.0,94,0.00,,---,0.03,109.00,VWS V14.01,2013-03-21 16:24:00,
2013-03-21 09:29:00,38.5,36.9,30.30,South,175,5.0,7.0,94,0.00,,---,0.03,98.00,VWS V14.01,2013-03-21 16:29:00,
2013-03-21 09:30:00,38.5,36.9,30.30,SSW,212,6.0,11.0,94,0.00,,---,0.03,102.00,VWS V14.01,2013-03-21 16:30:00,
2013-03-21 09:34:00,38.4,36.8,30.30,SSW,209,2.0,9.0,94,0.00,,---,0.03,120.00,VWS V14.01,2013-03-21 16:34:00,
2013-03-21 09:39:00,38.6,37.0,30.30,SSW,198,4.0,6.0,94,0.00,,---,0.03,236.00,VWS V14.01,2013-03-21 16:39:00,
2013-03-21 09:40:00,38.5,36.9,30.30,SW,215,3.0,9.0,94,0.00,,---,0.03,276.00,VWS V14.01,2013-03-21 16:40:00,
2013-03-21 09:44:00,39.0,37.4,30.30,SW,223,4.0,11.0,94,0.00,,---,0.03,527.00,VWS V14.01,2013-03-21 16:44:00,
2013-03-21 09:49:00,39.7,38.1,30.31,South,184,5.0,7.0,94,0.00,,---,0.03,283.00,VWS V14.01,2013-03-21 16:49:00,
2013-03-21 09:50:00,39.5,38.2,30.30,SW,221,3.0,11.0,95,0.00,,---,0.03,320.00,VWS V14.01,2013-03-21 16:50:00,
2013-03-21 09:54:00,40.0,38.4,30.31,SW,229,1.0,11.0,94,0.00,,---,0.03,281.00,VWS V14.01,2013-03-21 16:54:00,
2013-03-21 09:59:00,40.2,38.6,30.31,SSW,210,3.0,7.0,94,0.00,,---,0.03,225.00,VWS V14.01,2013-03-21 16:59:00,
2013-03-21 10:00:00,40.0,38.1,30.31,SSW,213,1.0,11.0,93,0.00,,---,0.03,229.00,VWS V14.01,2013-03-21 17:00:00,
2013-03-21 10:04:00,40.1,38.0,30.31,SSW,202,3.0,11.0,92,0.00,,---,0.03,246.00,VWS V14.01,2013-03-21 17:04:00,
2013-03-21 10:09:00,40.3,38.4,30.32,South,189,3.0,9.0,93,0.00,,---,0.03,227.00,VWS V14.01,2013-03-21 17:09:00,
2013-03-21 10:10:00,40.1,38.0,30.32,SSW,211,4.0,11.0,92,0.00,,---,0.03,279.00,VWS V14.01,2013-03-21 17:10:00,
2013-03-21 10:14:00,40.5,38.4,30.32,SW,221,3.0,9.0,92,0.00,,---,0.03,181.00,VWS V14.01,2013-03-21 17:14:00,
2013-03-21 10:19:00,40.6,38.2,30.32,SSW,195,5.0,7.0,91,0.00,,---,0.03,169.00,VWS V14.01,2013-03-21 17:19:00,
2013-03-21 10:20:00,40.5,38.4,30.32,SW,214,2.0,9.0,92,0.00,,---,0.03,176.00,VWS V14.01,2013-03-21 17:20:00,
2013-03-21 10:24:00,40.5,37.8,30.32,SW,236,6.0,7.0,90,0.00,,---,0.03,218.00,VWS V14.01,2013-03-21 17:24:00,
2013-03-21 10:29:00,40.5,37.8,30.32,SW,221,2.0,5.0,90,0.00,,---,0.03,244.00,VWS V14.01,2013-03-21 17:29:00,
2013-03-21 10:30:00,40.6,38.2,30.32,SSW,202,2.0,7.0,91,0.00,,---,0.03,227.00,VWS V14.01,2013-03-21 17:30:00,
2013-03-21 10:34:00,40.6,37.9,30.32,SSW,199,1.0,9.0,90,0.00,,---,0.03,199.00,VWS V14.01,2013-03-21 17:34:00,
2013-03-21 10:39:00,40.6,38.2,30.32,SW,219,5.0,11.0,91,0.00,,---,0.03,253.00,VWS V14.01,2013-03-21 17:39:00,
2013-03-21 10:40:00,40.7,38.3,30.32,SSW,204,3.0,9.0,91,0.00,,---,0.03,213.00,VWS V14.01,2013-03-21 17:40:00,
2013-03-21 10:44:00,40.6,38.2,30.32,SSW,199,5.0,11.0,91,0.00,,---,0.03,339.00,VWS V14.01,2013-03-21 17:44:00,
2013-03-21 10:49:00,40.8,38.4,30.32,South,174,5.0,7.0,91,0.00,,---,0.03,371.00,VWS V14.01,2013-03-21 17:49:00,
2013-03-21 10:50:00,40.6,38.2,30.32,SSW,209,4.0,11.0,91,0.00,,---,0.03,359.00,VWS V14.01,2013-03-21 17:50:00,
2013-03-21 10:54:00,41.0,38.3,30.33,SSW,199,0.0,12.0,90,0.00,,---,0.03,323.00,VWS V14.01,2013-03-21 17:54:00,
2013-03-21 10:59:00,41.3,38.9,30.33,SW,227,4.0,6.0,91,0.00,,---,0.03,362.00,VWS V14.01,2013-03-21 17:59:00,
2013-03-21 11:00:00,41.1,38.7,30.32,SW,233,3.0,12.0,91,0.00,,---,0.03,316.00,VWS V14.01,2013-03-21 18:00:00,
2013-03-21 11:04:00,41.3,38.3,30.33,SW,236,7.0,11.0,89,0.00,,---,0.03,422.00,VWS V14.01,2013-03-21 18:04:00,
2013-03-21 11:09:00,41.6,38.3,30.33,SSW,203,5.0,10.0,88,0.00,,---,0.03,302.00,VWS V14.01,2013-03-21 18:09:00,
2013-03-21 11:10:00,41.6,38.9,30.33,South,173,8.0,11.0,90,0.00,,---,0.03,585.00,VWS V14.01,2013-03-21 18:10:00,
2013-03-21 11:14:00,41.8,38.5,30.33,WSW,248,6.0,10.0,88,0.00,,---,0.03,779.00,VWS V14.01,2013-03-21 18:14:00,
2013-03-21 11:19:00,42.5,38.9,30.33,SSW,202,0.0,7.0,87,0.00,,---,0.03,911.00,VWS V14.01,2013-03-21 18:19:00,
2013-03-21 11:20:00,42.4,39.7,30.33,WSW,243,5.0,10.0,90,0.00,,---,0.03,824.00,VWS V14.01,2013-03-21 18:20:00,
2013-03-21 11:24:00,42.8,38.9,30.32,SSW,207,9.0,10.0,86,0.00,,---,0.03,311.00,VWS V14.01,2013-03-21 18:24:00,
2013-03-21 11:29:00,42.5,38.6,30.32,SSW,202,2.0,9.0,86,0.00,,---,0.03,394.00,VWS V14.01,2013-03-21 18:29:00,
2013-03-21 11:30:00,42.7,39.1,30.32,South,177,2.0,10.0,87,0.00,,---,0.03,489.00,VWS V14.01,2013-03-21 18:30:00,
2013-03-21 11:34:00,42.7,38.8,30.33,South,188,6.0,9.0,86,0.00,,---,0.03,533.00,VWS V14.01,2013-03-21 18:34:00,
2013-03-21 11:39:00,43.0,38.8,30.33,South,187,4.0,9.0,85,0.00,,---,0.03,464.00,VWS V14.01,2013-03-21 18:39:00,
2013-03-21 11:40:00,42.9,39.0,30.33,SW,215,1.0,9.0,86,0.00,,---,0.03,431.00,VWS V14.01,2013-03-21 18:40:00,
2013-03-21 11:44:00,43.3,38.8,30.33,SSE,168,4.0,10.0,84,0.00,,---,0.03,454.00,VWS V14.01,2013-03-21 18:44:00,
2013-03-21 11:49:00,43.3,39.1,30.33,SSW,211,7.0,7.0,85,0.00,,---,0.03,288.00,VWS V14.01,2013-03-21 18:49:00,
2013-03-21 11:50:00,43.2,38.4,30.32,SW,225,1.0,10.0,83,0.00,,---,0.03,318.00,VWS V14.01,2013-03-21 18:50:00,
2013-03-21 11:54:00,43.1,38.3,30.32,South,182,3.0,10.0,83,0.00,,---,0.03,246.00,VWS V14.01,2013-03-21 18:54:00,
2013-03-21 11:59:00,43.6,39.1,30.32,SSW,196,3.0,10.0,84,0.00,,---,0.03,206.00,VWS V14.01,2013-03-21 18:59:00,
2013-03-21 12:00:00,43.3,38.8,30.32,SSW,202,2.0,10.0,84,0.00,,---,0.03,473.00,VWS V14.01,2013-03-21 19:00:00,
2013-03-21 12:04:00,43.7,39.2,30.32,South,184,2.0,10.0,84,0.00,,---,0.03,329.00,VWS V14.01,2013-03-21 19:04:00,
2013-03-21 12:09:00,44.2,39.7,30.32,South,172,4.0,5.0,84,0.00,,---,0.03,329.00,VWS V14.01,2013-03-21 19:09:00,
2013-03-21 12:10:00,44.0,39.8,30.32,WSW,250,2.0,10.0,85,0.00,,---,0.03,329.00,VWS V14.01,2013-03-21 19:10:00,
2013-03-21 12:14:00,44.5,39.0,30.32,WSW,243,5.0,10.0,81,0.00,,---,0.03,338.00,VWS V14.01,2013-03-21 19:14:00,
2013-03-21 12:19:00,44.7,37.6,30.32,WSW,246,1.0,9.0,76,0.00,,---,0.03,408.00,VWS V14.01,2013-03-21 19:19:00,
2013-03-21 12:20:00,44.6,37.5,30.32,West,261,9.0,11.0,76,0.00,,---,0.03,394.00,VWS V14.01,2013-03-21 19:20:00,
2013-03-21 12:24:00,45.3,38.5,30.32,WSW,257,1.0,9.0,77,0.00,,---,0.03,408.00,VWS V14.01,2013-03-21 19:24:00,
2013-03-21 12:29:00,45.6,38.2,30.32,SW,223,6.0,11.0,75,0.00,,---,0.03,376.00,VWS V14.01,2013-03-21 19:29:00,
2013-03-21 12:30:00,45.6,38.8,30.32,West,264,5.0,9.0,77,0.00,,---,0.03,357.00,VWS V14.01,2013-03-21 19:30:00,
2013-03-21 12:34:00,45.6,38.2,30.32,SW,216,6.0,12.0,75,0.00,,---,0.03,336.00,VWS V14.01,2013-03-21 19:34:00,
2013-03-21 12:39:00,45.9,38.8,30.32,WSW,251,3.0,10.0,76,0.00,,---,0.03,895.00,VWS V14.01,2013-03-21 19:39:00,
2013-03-21 12:40:00,45.6,37.8,30.31,WSW,242,10.0,12.0,74,0.00,,---,0.03,362.00,VWS V14.01,2013-03-21 19:40:00,
2013-03-21 12:44:00,46.8,37.2,30.32,SSW,208,10.0,12.0,69,0.00,,---,0.03,406.00,VWS V14.01,2013-03-21 19:44:00,
2013-03-21 12:49:00,46.7,36.7,30.32,SW,232,9.0,12.0,68,0.00,,---,0.03,309.00,VWS V14.01,2013-03-21 19:49:00,
2013-03-21 12:50:00,46.8,37.2,30.32,WSW,254,11.0,12.0,69,0.00,,---,0.03,322.00,VWS V14.01,2013-03-21 19:50:00,
2013-03-21 12:54:00,46.4,37.5,30.32,SW,225,4.0,15.0,71,0.00,,---,0.03,322.00,VWS V14.01,2013-03-21 19:54:00,
2013-03-21 12:59:00,46.1,37.6,30.32,SW,234,16.0,16.0,72,0.00,,---,0.03,260.00,VWS V14.01,2013-03-21 19:59:00,
2013-03-21 13:00:00,46.3,37.4,30.32,WSW,237,5.0,15.0,71,0.00,,---,0.03,285.00,VWS V14.01,2013-03-21 20:00:00,
2013-03-21 13:04:00,44.6,37.5,30.33,WNW,284,18.0,20.0,76,0.00,,---,0.03,139.00,VWS V14.01,2013-03-21 20:04:00,
2013-03-21 13:09:00,42.3,36.9,30.33,WNW,297,12.0,15.0,81,0.00,,---,0.03,274.00,VWS V14.01,2013-03-21 20:09:00,
2013-03-21 13:10:00,43.2,36.8,30.33,West,259,10.0,22.0,78,0.00,,---,0.03,192.00,VWS V14.01,2013-03-21 20:10:00,
2013-03-21 13:14:00,41.9,37.1,30.33,WNW,293,5.0,17.0,83,0.01,,---,0.04,547.00,VWS V14.01,2013-03-21 20:14:00,
2013-03-21 13:19:00,42.3,37.8,30.33,WSW,248,9.0,14.0,84,0.01,,---,0.04,726.00,VWS V14.01,2013-03-21 20:19:00,
2013-03-21 13:20:00,42.2,38.3,30.33,West,266,12.0,17.0,86,0.01,,---,0.04,529.00,VWS V14.01,2013-03-21 20:20:00,
2013-03-21 13:24:00,42.7,38.5,30.32,West,267,5.0,14.0,85,0.01,,---,0.04,861.00,VWS V14.01,2013-03-21 20:24:00,
2013-03-21 13:29:00,43.1,38.0,30.32,WNW,299,6.0,13.0,82,0.01,,---,0.04,810.00,VWS V14.01,2013-03-21 20:29:00,
2013-03-21 13:30:00,42.9,38.1,30.32,WNW,288,10.0,15.0,83,0.01,,---,0.04,842.00,VWS V14.01,2013-03-21 20:30:00,
2013-03-21 13:34:00,43.4,38.0,30.32,NNW,330,5.0,16.0,81,0.01,,---,0.04,809.00,VWS V14.01,2013-03-21 20:34:00,
2013-03-21 13:39:00,43.8,38.7,30.32,WNW,291,12.0,12.0,82,0.01,,---,0.04,809.00,VWS V14.01,2013-03-21 20:39:00,
2013-03-21 13:40:00,43.6,37.8,30.32,NNW,332,11.0,16.0,80,0.01,,---,0.04,810.00,VWS V14.01,2013-03-21 20:40:00,
2013-03-21 13:44:00,44.3,38.8,30.32,West,260,3.0,12.0,81,0.01,,---,0.04,817.00,VWS V14.01,2013-03-21 20:44:00,
2013-03-21 13:49:00,44.8,39.3,30.31,WNW,302,4.0,12.0,81,0.01,,---,0.04,842.00,VWS V14.01,2013-03-21 20:49:00,
2013-03-21 13:50:00,44.5,39.0,30.32,WNW,292,8.0,12.0,81,0.01,,---,0.04,842.00,VWS V14.01,2013-03-21 20:50:00,
2013-03-21 13:54:00,45.5,39.4,30.31,WNW,290,8.0,16.0,79,0.01,,---,0.04,854.00,VWS V14.01,2013-03-21 20:54:00,
2013-03-21 13:59:00,45.7,39.6,30.31,SW,221,3.0,8.0,79,0.01,,---,0.04,817.00,VWS V14.01,2013-03-21 20:59:00,
2013-03-21 14:00:00,45.6,40.4,30.31,SW,229,7.0,16.0,82,0.01,,---,0.04,838.00,VWS V14.01,2013-03-21 21:00:00,
2013-03-21 14:04:00,45.9,38.4,30.31,SW,236,11.0,19.0,75,0.01,,---,0.04,285.00,VWS V14.01,2013-03-21 21:04:00,
2013-03-21 14:09:00,44.8,38.0,30.32,West,271,14.0,17.0,77,0.01,,---,0.04,327.00,VWS V14.01,2013-03-21 21:09:00,
2013-03-21 14:10:00,45.3,38.2,30.32,West,265,11.0,19.0,76,0.01,,---,0.04,285.00,VWS V14.01,2013-03-21 21:10:00,
2013-03-21 14:14:00,43.6,37.5,30.31,SW,233,5.0,17.0,79,0.01,,---,0.04,406.00,VWS V14.01,2013-03-21 21:14:00,
2013-03-21 14:19:00,43.5,38.7,30.31,West,260,5.0,9.0,83,0.00,,---,0.04,378.00,VWS V14.01,2013-03-21 21:19:00,
2013-03-21 14:20:00,43.4,38.6,30.31,West,271,2.0,17.0,83,0.01,,---,0.04,399.00,VWS V14.01,2013-03-21 21:20:00,
2013-03-21 14:24:00,43.5,38.1,30.30,SW,234,7.0,10.0,81,0.00,,---,0.04,362.00,VWS V14.01,2013-03-21 21:24:00,
2013-03-21 14:29:00,43.6,37.8,30.30,SW,228,2.0,10.0,80,0.00,,---,0.04,348.00,VWS V14.01,2013-03-21 21:29:00,
2013-03-21 14:30:00,43.6,38.5,30.30,SW,234,8.0,10.0,82,0.00,,---,0.04,338.00,VWS V14.01,2013-03-21 21:30:00,
2013-03-21 14:34:00,44.1,38.3,30.30,SW,223,5.0,13.0,80,0.00,,---,0.04,649.00,VWS V14.01,2013-03-21 21:34:00,
2013-03-21 14:39:00,44.5,38.4,30.30,WSW,247,11.0,15.0,79,0.00,,---,0.04,570.00,VWS V14.01,2013-03-21 21:39:00,
2013-03-21 14:40:00,44.4,38.3,30.30,WSW,254,9.0,15.0,79,0.00,,---,0.04,570.00,VWS V14.01,2013-03-21 21:40:00,
2013-03-21 14:44:00,44.9,39.1,30.29,SW,222,5.0,15.0,80,0.00,,---,0.04,308.00,VWS V14.01,2013-03-21 21:44:00,
2013-03-21 14:49:00,45.0,38.6,30.29,WSW,248,5.0,11.0,78,0.00,,---,0.04,341.00,VWS V14.01,2013-03-21 21:49:00,
2013-03-21 14:50:00,44.9,38.8,30.29,SW,229,4.0,15.0,79,0.00,,---,0.04,311.00,VWS V14.01,2013-03-21 21:50:00,
2013-03-21 14:54:00,45.3,38.9,30.29,WSW,242,8.0,11.0,78,0.00,,---,0.04,309.00,VWS V14.01,2013-03-21 21:54:00,
2013-03-21 14:59:00,45.4,38.0,30.29,WSW,247,9.0,11.0,75,0.00,,---,0.04,352.00,VWS V14.01,2013-03-21 21:59:00,
2013-03-21 15:00:00,45.3,38.2,30.29,SW,220,3.0,11.0,76,0.00,,---,0.04,362.00,VWS V14.01,2013-03-21 22:00:00,
2013-03-21 15:04:00,45.7,38.2,30.29,WSW,255,3.0,12.0,75,0.00,,---,0.04,381.00,VWS V14.01,2013-03-21 22:04:00,
2013-03-21 15:09:00,46.2,38.4,30.29,West,274,11.0,11.0,74,0.00,,---,0.04,357.00,VWS V14.01,2013-03-21 22:09:00,
2013-03-21 15:10:00,46.0,38.9,30.29,WSW,254,6.0,12.0,76,0.00,,---,0.04,652.00,VWS V14.01,2013-03-21 22:10:00,
2013-03-21 15:14:00,46.1,37.2,30.29,WSW,242,9.0,11.0,71,0.00,,---,0.04,355.00,VWS V14.01,2013-03-21 22:14:00,
2013-03-21 15:19:00,45.9,36.7,30.29,WSW,257,4.0,8.0,70,0.00,,---,0.04,359.00,VWS V14.01,2013-03-21 22:19:00,
2013-03-21 15:20:00,45.9,36.7,30.29,WSW,238,3.0,12.0,70,0.00,,---,0.04,359.00,VWS V14.01,2013-03-21 22:20:00,
2013-03-21 15:24:00,46.0,37.1,30.29,West,265,5.0,9.0,71,0.00,,---,0.04,302.00,VWS V14.01,2013-03-21 22:24:00,
2013-03-21 15:29:00,46.0,36.4,30.29,WSW,242,4.0,6.0,69,0.00,,---,0.04,332.00,VWS V14.01,2013-03-21 22:29:00,
2013-03-21 15:30:00,46.0,36.0,30.29,West,263,4.0,9.0,68,0.00,,---,0.04,316.00,VWS V14.01,2013-03-21 22:30:00,
2013-03-21 15:34:00,46.2,37.3,30.29,West,266,4.0,7.0,71,0.00,,---,0.04,838.00,VWS V14.01,2013-03-21 22:34:00,
2013-03-21 15:39:00,47.1,37.1,30.29,NW,309,5.0,6.0,68,0.00,,---,0.04,719.00,VWS V14.01,2013-03-21 22:39:00,
2013-03-21 15:40:00,46.7,37.8,30.29,West,264,4.0,7.0,71,0.00,,---,0.04,765.00,VWS V14.01,2013-03-21 22:40:00,
2013-03-21 15:44:00,47.9,37.9,30.29,WNW,294,3.0,13.0,68,0.00,,---,0.04,717.00,VWS V14.01,2013-03-21 22:44:00,
2013-03-21 15:49:00,47.7,37.3,30.29,WNW,286,10.0,12.0,67,0.00,,---,0.04,621.00,VWS V14.01,2013-03-21 22:49:00,
2013-03-21 15:50:00,47.8,37.8,30.29,WNW,292,8.0,13.0,68,0.00,,---,0.04,621.00,VWS V14.01,2013-03-21 22:50:00,
2013-03-21 15:54:00,47.2,37.6,30.29,WSW,257,6.0,12.0,69,0.00,,---,0.04,327.00,VWS V14.01,2013-03-21 22:54:00,
2013-03-21 15:59:00,47.8,37.8,30.29,WSW,257,6.0,10.0,68,0.00,,---,0.04,452.00,VWS V14.01,2013-03-21 22:59:00,
2013-03-21 16:00:00,47.5,37.1,30.29,West,265,7.0,12.0,67,0.00,,---,0.04,369.00,VWS V14.01,2013-03-21 23:00:00,
2013-03-21 16:04:00,48.2,37.4,30.29,WNW,285,9.0,20.0,66,0.00,,---,0.04,740.00,VWS V14.01,2013-03-21 23:04:00,
2013-03-21 16:09:00,48.2,37.4,30.29,WSW,242,5.0,13.0,66,0.00,,---,0.04,642.00,VWS V14.01,2013-03-21 23:09:00,
2013-03-21 16:10:00,48.0,38.7,30.29,SSW,207,6.0,20.0,70,0.00,,---,0.04,661.00,VWS V14.01,2013-03-21 23:10:00,
2013-03-21 16:14:00,48.4,37.6,30.29,West,260,4.0,15.0,66,0.00,,---,0.04,248.00,VWS V14.01,2013-03-21 23:14:00,
2013-03-21 16:19:00,48.4,37.2,30.29,West,267,9.0,14.0,65,0.00,,---,0.04,613.00,VWS V14.01,2013-03-21 23:19:00,
2013-03-21 16:20:00,48.4,38.0,30.29,WSW,257,10.0,15.0,67,0.00,,---,0.04,213.00,VWS V14.01,2013-03-21 23:20:00,
2013-03-21 16:24:00,48.3,37.5,30.29,WSW,238,5.0,14.0,66,0.00,,---,0.04,276.00,VWS V14.01,2013-03-21 23:24:00,
2013-03-21 16:29:00,48.2,38.2,30.29,WNW,291,10.0,16.0,68,0.00,,---,0.04,682.00,VWS V14.01,2013-03-21 23:29:00,
2013-03-21 16:30:00,48.3,38.6,30.29,West,273,7.0,14.0,69,0.00,,---,0.04,682.00,VWS V14.01,2013-03-21 23:30:00,
2013-03-21 16:34:00,47.4,37.8,30.29,WNW,303,10.0,16.0,69,0.00,,---,0.04,606.00,VWS V14.01,2013-03-21 23:34:00,
2013-03-21 16:39:00,46.8,38.6,30.29,NW,312,7.0,13.0,73,0.00,,---,0.04,250.00,VWS V14.01,2013-03-21 23:39:00,
2013-03-21 16:40:00,47.0,37.0,30.29,NW,309,6.0,16.0,68,0.00,,---,0.04,279.00,VWS V14.01,2013-03-21 23:40:00,
2013-03-21 16:44:00,46.8,38.3,30.30,West,273,12.0,13.0,72,0.00,,---,0.04,526.00,VWS V14.01,2013-03-21 23:44:00,
2013-03-21 16:49:00,46.9,37.3,30.29,WNW,282,6.0,11.0,69,0.00,,---,0.04,450.00,VWS V14.01,2013-03-21 23:49:00,
2013-03-21 16:50:00,46.9,37.3,30.29,West,269,9.0,13.0,69,0.00,,---,0.04,578.00,VWS V14.01,2013-03-21 23:50:00,
2013-03-21 16:54:00,46.3,37.1,30.30,WNW,282,12.0,17.0,70,0.00,,---,0.04,216.00,VWS V14.01,2013-03-21 23:54:00,
2013-03-21 16:59:00,45.6,35.7,30.30,West,271,12.0,15.0,68,0.00,,---,0.04,169.00,VWS V14.01,2013-03-21 23:59:00,
2013-03-21 17:00:00,45.9,37.0,30.30,West,266,7.0,17.0,71,0.00,,---,0.04,186.00,VWS V14.01,2013-03-22 00:00:00,
2013-03-21 17:04:00,45.1,35.5,30.30,WSW,246,10.0,18.0,69,0.00,,---,0.04,158.00,VWS V14.01,2013-03-22 00:04:00,
2013-03-21 17:09:00,45.0,36.5,30.30,WNW,286,9.0,11.0,72,0.00,,---,0.04,251.00,VWS V14.01,2013-03-22 00:09:00,
2013-03-21 17:10:00,44.9,36.4,30.30,West,271,8.0,18.0,72,0.00,,---,0.04,199.00,VWS V14.01,2013-03-22 00:10:00,
2013-03-21 17:14:00,45.3,36.8,30.30,West,266,6.0,11.0,72,0.00,,---,0.04,162.00,VWS V14.01,2013-03-22 00:14:00,
2013-03-21 17:19:00,45.3,35.7,30.30,WNW,283,9.0,15.0,69,0.00,,---,0.04,139.00,VWS V14.01,2013-03-22 00:19:00,
2013-03-21 17:20:00,45.3,36.8,30.30,WNW,289,6.0,12.0,72,0.00,,---,0.04,139.00,VWS V14.01,2013-03-22 00:20:00,
2013-03-21 17:24:00,44.9,35.7,30.30,WNW,293,14.0,16.0,70,0.00,,---,0.04,128.00,VWS V14.01,2013-03-22 00:24:00,
2013-03-21 17:29:00,44.6,35.4,30.30,WNW,287,11.0,18.0,70,0.00,,---,0.04,123.00,VWS V14.01,2013-03-22 00:29:00,
2013-03-21 17:30:00,44.7,35.5,30.31,WNW,286,13.0,16.0,70,0.00,,---,0.04,137.00,VWS V14.01,2013-03-22 00:30:00,
2013-03-21 17:34:00,44.6,36.2,30.31,WSW,250,2.0,18.0,72,0.00,,---,0.04,174.00,VWS V14.01,2013-03-22 00:34:00,
2013-03-21 17:39:00,45.1,36.3,30.31,West,269,10.0,18.0,71,0.00,,---,0.04,327.00,VWS V14.01,2013-03-22 00:39:00,
2013-03-21 17:40:00,44.9,36.4,30.31,WSW,252,9.0,18.0,72,0.00,,---,0.04,327.00,VWS V14.01,2013-03-22 00:40:00,
2013-03-21 17:44:00,45.3,36.1,30.31,West,270,4.0,18.0,70,0.00,,---,0.04,118.00,VWS V14.01,2013-03-22 00:44:00,
2013-03-21 17:49:00,45.2,35.7,30.31,WNW,286,6.0,16.0,69,0.00,,---,0.04,260.00,VWS V14.01,2013-03-22 00:49:00,
2013-03-21 17:50:00,45.3,36.8,30.31,West,281,10.0,18.0,72,0.00,,---,0.04,128.00,VWS V14.01,2013-03-22 00:50:00,
2013-03-21 17:54:00,45.2,36.4,30.31,WNW,285,6.0,16.0,71,0.00,,---,0.04,227.00,VWS V14.01,2013-03-22 00:54:00,
2013-03-21 17:59:00,45.2,36.0,30.31,West,271,4.0,10.0,70,0.00,,---,0.04,207.00,VWS V14.01,2013-03-22 00:59:00,
2013-03-21 18:00:00,45.2,36.0,30.31,NW,309,9.0,16.0,70,0.00,,---,0.04,200.00,VWS V14.01,2013-03-22 01:00:00,
2013-03-21 18:04:00,45.1,35.9,30.31,WNW,284,6.0,10.0,70,0.00,,---,0.04,67.00,VWS V14.01,2013-03-22 01:04:00,
2013-03-21 18:09:00,44.5,35.7,30.31,West,265,13.0,13.0,71,0.00,,---,0.04,56.00,VWS V14.01,2013-03-22 01:09:00,
2013-03-21 18:10:00,44.8,35.6,30.31,WNW,294,12.0,17.0,70,0.00,,---,0.04,58.00,VWS V14.01,2013-03-22 01:10:00,
2013-03-21 18:14:00,44.2,35.4,30.31,West,275,9.0,15.0,71,0.00,,---,0.04,51.00,VWS V14.01,2013-03-22 01:14:00,
2013-03-21 18:19:00,44.0,35.6,30.31,West,264,5.0,13.0,72,0.00,,---,0.04,70.00,VWS V14.01,2013-03-22 01:19:00,
2013-03-21 18:20:00,44.0,35.6,30.31,WNW,296,11.0,15.0,72,0.00,,---,0.04,49.00,VWS V14.01,2013-03-22 01:20:00,
2013-03-21 18:24:00,44.2,35.4,30.31,West,277,10.0,15.0,71,0.00,,---,0.04,130.00,VWS V14.01,2013-03-22 01:24:00,
2013-03-21 18:29:00,44.4,35.6,30.31,WSW,250,12.0,13.0,71,0.00,,---,0.04,105.00,VWS V14.01,2013-03-22 01:29:00,
2013-03-21 18:30:00,44.3,35.5,30.31,West,273,4.0,15.0,71,0.00,,---,0.04,114.00,VWS V14.01,2013-03-22 01:30:00,
2013-03-21 18:34:00,44.3,34.4,30.31,West,280,14.0,18.0,68,0.00,,---,0.04,84.00,VWS V14.01,2013-03-22 01:34:00,
2013-03-21 18:39:00,44.0,34.9,30.32,West,267,10.0,14.0,70,0.00,,---,0.04,65.00,VWS V14.01,2013-03-22 01:39:00,
2013-03-21 18:40:00,44.1,34.2,30.31,West,267,8.0,18.0,68,0.00,,---,0.04,58.00,VWS V14.01,2013-03-22 01:40:00,
2013-03-21 18:44:00,43.6,34.5,30.32,WNW,296,5.0,14.0,70,0.00,,---,0.04,51.00,VWS V14.01,2013-03-22 01:44:00,
2013-03-21 18:49:00,43.1,35.0,30.31,WNW,297,3.0,11.0,73,0.00,,---,0.04,35.00,VWS V14.01,2013-03-22 01:49:00,
2013-03-21 18:50:00,43.4,35.3,30.32,NNW,336,10.0,14.0,73,0.00,,---,0.04,63.00,VWS V14.01,2013-03-22 01:50:00,
2013-03-21 18:54:00,42.4,35.4,30.31,West,261,10.0,15.0,76,0.00,,---,0.04,32.00,VWS V14.01,2013-03-22 01:54:00,
2013-03-21 18:59:00,42.0,35.3,30.32,WNW,298,9.0,11.0,77,0.00,,---,0.04,26.00,VWS V14.01,2013-03-22 01:59:00,
2013-03-21 19:00:00,42.2,35.2,30.31,West,279,6.0,15.0,76,0.00,,---,0.04,30.00,VWS V14.01,2013-03-22 02:00:00,
2013-03-21 19:04:00,41.6,34.9,30.32,WNW,302,5.0,11.0,77,0.00,,---,0.04,23.00,VWS V14.01,2013-03-22 02:04:00,
2013-03-21 19:09:00,41.5,35.2,30.31,West,269,2.0,8.0,78,0.00,,---,0.04,19.00,VWS V14.01,2013-03-22 02:09:00,
2013-03-21 19:10:00,41.5,35.2,30.31,West,268,3.0,11.0,78,0.00,,---,0.04,21.00,VWS V14.01,2013-03-22 02:10:00,
2013-03-21 19:14:00,41.3,35.0,30.32,NW,304,5.0,8.0,78,0.00,,---,0.04,14.00,VWS V14.01,2013-03-22 02:14:00,
2013-03-21 19:19:00,41.0,35.0,30.32,WNW,284,5.0,7.0,79,0.00,,---,0.04,9.00,VWS V14.01,2013-03-22 02:19:00,
2013-03-21 19:20:00,41.2,34.9,30.32,WNW,284,6.0,8.0,78,0.00,,---,0.04,11.00,VWS V14.01,2013-03-22 02:20:00,
2013-03-21 19:24:00,40.7,34.7,30.32,West,277,2.0,7.0,79,0.00,,---,0.04,5.00,VWS V14.01,2013-03-22 02:24:00,
2013-03-21 19:29:00,40.5,34.8,30.32,WSW,253,4.0,5.0,80,0.00,,---,0.04,0.00,VWS V14.01,2013-03-22 02:29:00,
2013-03-21 19:30:00,40.6,34.9,30.32,West,265,4.0,7.0,80,0.00,,---,0.04,0.00,VWS V14.01,2013-03-22 02:30:00,
2013-03-21 19:34:00,40.6,34.9,30.32,West,261,0.0,5.0,80,0.00,,---,0.04,0.00,VWS V14.01,2013-03-22 02:34:00,
2013-03-21 19:39:00,40.5,34.8,30.33,West,277,0.0,6.0,80,0.00,,---,0.04,0.00,VWS V14.01,2013-03-22 02:39:00,
2013-03-21 19:40:00,40.5,34.8,30.33,West,261,0.0,5.0,80,0.00,,---,0.04,0.00,VWS V14.01,2013-03-22 02:40:00,
2013-03-21 19:44:00,40.5,34.8,30.33,West,259,2.0,6.0,80,0.00,,---,0.04,0.00,VWS V14.01,2013-03-22 02:44:00,
2013-03-21 19:49:00,40.5,34.8,30.33,West,268,4.0,6.0,80,0.00,,---,0.04,0.00,VWS V14.01,2013-03-22 02:49:00,
2013-03-21 19:50:00,40.5,34.8,30.33,West,275,2.0,6.0,80,0.00,,---,0.04,0.00,VWS V14.01,2013-03-22 02:50:00,
2013-03-21 19:54:00,40.5,34.5,30.34,WSW,254,4.0,6.0,79,0.00,,---,0.04,0.00,VWS V14.01,2013-03-22 02:54:00,
2013-03-21 19:59:00,40.4,34.1,30.34,SW,233,0.0,6.0,78,0.00,,---,0.04,0.00,VWS V14.01,2013-03-22 02:59:00,
2013-03-21 20:00:00,40.5,34.5,30.33,WSW,239,2.0,7.0,79,0.00,,---,0.04,0.00,VWS V14.01,2013-03-22 03:00:00,
2013-03-21 20:04:00,40.3,34.0,30.33,SW,233,2.0,6.0,78,0.00,,---,0.04,0.00,VWS V14.01,2013-03-22 03:04:00,
2013-03-21 20:09:00,40.1,34.1,30.34,SW,233,2.0,3.0,79,0.00,,---,0.04,0.00,VWS V14.01,2013-03-22 03:09:00,
2013-03-21 20:10:00,40.2,33.9,30.33,SW,233,0.0,6.0,78,0.00,,---,0.04,0.00,VWS V14.01,2013-03-22 03:10:00,
2013-03-21 20:14:00,39.8,33.8,30.33,SW,233,0.0,3.0,79,0.00,,---,0.04,0.00,VWS V14.01,2013-03-22 03:14:00,
2013-03-21 20:19:00,39.6,34.0,30.34,SW,225,3.0,3.0,80,0.00,,---,0.04,0.00,VWS V14.01,2013-03-22 03:19:00,
2013-03-21 20:20:00,39.8,34.1,30.34,SW,233,0.0,3.0,80,0.00,,---,0.04,0.00,VWS V14.01,2013-03-22 03:20:00,
2013-03-21 20:24:00,39.4,33.8,30.34,SW,225,0.0,3.0,80,0.00,,---,0.04,0.00,VWS V14.01,2013-03-22 03:24:00,
2013-03-21 20:29:00,39.2,33.9,30.34,SW,225,0.0,0.0,81,0.00,,---,0.04,0.00,VWS V14.01,2013-03-22 03:29:00,
2013-03-21 20:30:00,39.3,34.0,30.34,SW,225,0.0,3.0,81,0.00,,---,0.04,0.00,VWS V14.01,2013-03-22 03:30:00,
2013-03-21 20:34:00,39.0,33.7,30.34,SW,225,0.0,1.0,81,0.00,,---,0.04,0.00,VWS V14.01,2013-03-22 03:34:00,
2013-03-21 20:39:00,38.8,33.8,30.34,SSW,201,3.0,5.0,82,0.00,,---,0.04,0.00,VWS V14.01,2013-03-22 03:39:00,
2013-03-21 20:40:00,38.9,33.9,30.34,SW,225,0.0,1.0,82,0.00,,---,0.04,0.00,VWS V14.01,2013-03-22 03:40:00,
2013-03-21 20:44:00,38.7,34.0,30.34,SSW,207,0.0,5.0,83,0.00,,---,0.04,0.00,VWS V14.01,2013-03-22 03:44:00,
2013-03-21 20:49:00,38.6,33.9,30.34,SSW,208,0.0,0.0,83,0.00,,---,0.04,0.00,VWS V14.01,2013-03-22 03:49:00,
2013-03-21 20:50:00,38.6,33.9,30.34,SSW,208,0.0,5.0,83,0.00,,---,0.04,0.00,VWS V14.01,2013-03-22 03:50:00,
2013-03-21 20:54:00,38.4,33.7,30.34,SSW,207,1.0,2.0,83,0.00,,---,0.04,0.00,VWS V14.01,2013-03-22 03:54:00,
2013-03-21 20:59:00,38.3,33.9,30.34,SSW,207,0.0,0.0,84,0.00,,---,0.04,0.00,VWS V14.01,2013-03-22 03:59:00,
2013-03-21 21:00:00,38.2,33.8,30.34,SSW,207,0.0,0.0,84,0.00,,---,0.04,0.00,VWS V14.01,2013-03-22 04:00:00,
2013-03-21 21:05:00,37.6,33.2,30.34,SSW,207,0.0,2.0,84,0.00,,---,0.04,0.00,VWS V14.01,2013-03-22 04:05:00,
2013-03-21 21:10:00,37.1,33.0,30.34,SSW,207,0.0,0.0,85,0.00,,---,0.04,0.00,VWS V14.01,2013-03-22 04:10:00,
2013-03-21 21:15:00,36.5,32.4,30.35,SSW,207,2.0,3.0,85,0.00,,---,0.04,0.00,VWS V14.01,2013-03-22 04:15:00,
2013-03-21 21:20:00,35.8,32.3,30.35,SSW,207,0.0,2.0,87,0.00,,---,0.04,0.00,VWS V14.01,2013-03-22 04:20:00,
2013-03-21 21:25:00,35.5,32.6,30.35,SSW,207,0.0,2.0,89,0.00,,---,0.04,0.00,VWS V14.01,2013-03-22 04:25:00,
2013-03-21 21:30:00,35.5,32.6,30.35,SSW,208,0.0,2.0,89,0.00,,---,0.04,0.00,VWS V14.01,2013-03-22 04:30:00,
2013-03-21 21:35:00,35.7,33.1,30.35,SSW,207,0.0,2.0,90,0.00,,---,0.04,0.00,VWS V14.01,2013-03-22 04:35:00,
2013-03-21 21:40:00,35.8,33.2,30.35,SSW,207,0.0,0.0,90,0.00,,---,0.04,0.00,VWS V14.01,2013-03-22 04:40:00,
2013-03-21 21:45:00,35.9,33.3,30.35,SSW,208,3.0,4.0,90,0.00,,---,0.04,0.00,VWS V14.01,2013-03-22 04:45:00,
2013-03-21 21:50:00,36.0,33.6,30.35,SSW,208,0.0,3.0,91,0.00,,---,0.04,0.00,VWS V14.01,2013-03-22 04:50:00,
2013-03-21 21:55:00,36.6,34.2,30.35,SW,229,4.0,6.0,91,0.00,,---,0.04,0.00,VWS V14.01,2013-03-22 04:55:00,
2013-03-21 22:00:00,37.3,34.4,30.35,SSW,204,0.0,5.0,89,0.00,,---,0.04,0.00,VWS V14.01,2013-03-22 05:00:00,
2013-03-21 22:05:00,37.7,34.5,30.35,West,269,4.0,5.0,88,0.00,,---,0.04,0.00,VWS V14.01,2013-03-22 05:05:00,
2013-03-21 22:10:00,37.9,34.4,30.35,West,265,3.0,5.0,87,0.00,,---,0.04,0.00,VWS V14.01,2013-03-22 05:10:00,
2013-03-21 22:15:00,38.0,34.2,30.35,WSW,258,0.0,5.0,86,0.00,,---,0.04,0.00,VWS V14.01,2013-03-22 05:15:00,
2013-03-21 22:20:00,38.1,34.3,30.35,WSW,257,1.0,3.0,86,0.00,,---,0.04,0.00,VWS V14.01,2013-03-22 05:20:00,
2013-03-21 22:25:00,37.9,34.1,30.35,WSW,244,1.0,3.0,86,0.00,,---,0.04,0.00,VWS V14.01,2013-03-22 05:25:00,
2013-03-21 22:30:00,37.5,33.7,30.35,WSW,244,2.0,2.0,86,0.00,,---,0.04,0.00,VWS V14.01,2013-03-22 05:30:00,
2013-03-21 22:35:00,37.2,33.7,30.35,WSW,244,1.0,2.0,87,0.00,,---,0.04,0.00,VWS V14.01,2013-03-22 05:35:00,
2013-03-21 22:40:00,36.9,33.4,30.35,WSW,244,0.0,2.0,87,0.00,,---,0.04,0.00,VWS V14.01,2013-03-22 05:40:00,
2013-03-21 22:45:00,36.5,33.3,30.35,WSW,244,0.0,2.0,88,0.00,,---,0.04,0.00,VWS V14.01,2013-03-22 05:45:00,
2013-03-21 22:50:00,36.3,33.1,30.35,WSW,244,0.0,1.0,88,0.00,,---,0.04,0.00,VWS V14.01,2013-03-22 05:50:00,
2013-03-21 22:55:00,36.1,33.2,30.35,WSW,244,0.0,1.0,89,0.00,,---,0.04,0.00,VWS V14.01,2013-03-22 05:55:00,
2013-03-21 23:00:00,35.9,33.0,30.35,WSW,244,0.0,2.0,89,0.00,,---,0.04,0.00,VWS V14.01,2013-03-22 06:00:00,
2013-03-21 23:05:00,35.8,32.9,30.35,WSW,244,0.0,2.0,89,0.00,,---,0.04,0.00,VWS V14.01,2013-03-22 06:05:00,
2013-03-21 23:10:00,35.7,33.1,30.35,WSW,244,0.0,0.0,90,0.00,,---,0.04,0.00,VWS V14.01,2013-03-22 06:10:00,
2013-03-21 23:15:00,35.7,33.1,30.35,WSW,244,0.0,0.0,90,0.00,,---,0.04,0.00,VWS V14.01,2013-03-22 06:15:00,
2013-03-21 23:20:00,35.8,33.4,30.35,WSW,244,0.0,0.0,91,0.00,,---,0.04,0.00,VWS V14.01,2013-03-22 06:20:00,
2013-03-21 23:25:00,35.9,33.5,30.35,SSE,157,1.0,3.0,91,0.00,,---,0.04,0.00,VWS V14.01,2013-03-22 06:25:00,
2013-03-21 23:30:00,36.1,34.0,30.36,SSE,157,0.0,1.0,92,0.00,,---,0.04,0.00,VWS V14.01,2013-03-22 06:30:00,
2013-03-21 23:35:00,36.2,34.1,30.36,SSE,157,0.0,2.0,92,0.00,,---,0.04,0.00,VWS V14.01,2013-03-22 06:35:00,
2013-03-21 23:40:00,36.3,34.2,30.36,SSE,157,1.0,2.0,92,0.00,,---,0.04,0.00,VWS V14.01,2013-03-22 06:40:00,
2013-03-21 23:45:00,36.3,34.2,30.36,SSE,157,2.0,3.0,92,0.00,,---,0.04,0.00,VWS V14.01,2013-03-22 06:45:00,
2013-03-21 23:50:00,36.4,34.3,30.36,SSE,157,0.0,0.0,92,0.00,,---,0.04,0.00,VWS V14.01,2013-03-22 06:50:00,
2013-03-21 23:55:00,36.4,34.3,30.35,SSE,157,0.0,1.0,92,0.00,,---,0.04,0.00,VWS V14.01,2013-03-22 06:55:00,